Time;durP1;ratioP1;P1;durP2;ratioP2;P2;SDS_P1;SDS_P2;PMS_P1;PMS_P2;Temp;Humidity;BMP_temperature;BMP_pressure;BME280_temperature;BME280_humidity;BME280_pressure;Samples;Min_cycle;Max_cycle;Signal;HPM_P1;HPM_P2
2023/12/07 00:02:18;;;;;;;28.70;17.50;;;;;;;10.85;28.61;100402.06;108381;1253;60183;-56
2023/12/07 00:04:45;;;;;;;26.90;19.10;;;;;;;10.69;28.54;100400.30;108395;1257;59866;-56
2023/12/07 00:07:13;;;;;;;;;;;;;;;10.65;28.45;100407.96;108430;1253;72688;-56
2023/12/07 00:09:41;;;;;;;29.70;18.60;;;;;;;10.61;28.29;100409.48;108389;1253;68102;-56
2023/12/07 00:12:09;;;;;;;;;;;;;;;10.56;28.50;100407.55;108399;1256;72427;-55
2023/12/07 00:14:36;;;;;;;26.50;18.30;;;;;;;10.54;28.45;100406.36;108350;1254;59771;-56
2023/12/07 00:17:04;;;;;;;26.00;17.80;;;;;;;10.41;28.56;100407.83;108412;1252;59690;-56
2023/12/07 00:19:31;;;;;;;;;;;;;;;10.53;28.41;100408.66;108340;1256;73709;-55
2023/12/07 00:21:59;;;;;;;27.90;17.70;;;;;;;10.40;28.42;100406.44;108384;1253;69384;-56
2023/12/07 00:24:27;;;;;;;;;;;;;;;10.32;28.56;100403.86;108403;1253;72437;-57
2023/12/07 00:26:54;;;;;;;28.20;18.20;;;;;;;10.26;28.50;100404.19;108110;1253;337580;-56
2023/12/07 00:30:12;;;;;;;29.30;19.20;;;;;;;8.74;30.90;100402.73;101364;1306;600903;-56
2023/12/07 00:32:43;;;;;;;30.90;19.00;;;;;;;10.41;28.33;100398.17;103848;1270;59798;-56
2023/12/07 00:35:11;;;;;;;28.00;19.30;;;;;;;10.31;28.18;100401.27;103834;1272;59778;-56
2023/12/07 00:37:39;;;;;;;31.30;20.30;;;;;;;10.20;28.32;100398.42;103495;1270;71969;-56
2023/12/07 00:40:07;;;;;;;31.20;20.40;;;;;;;10.16;28.14;100400.61;103750;1264;69760;-57
2023/12/07 00:42:35;;;;;;;31.80;20.80;;;;;;;10.12;28.19;100405.98;103584;1283;73374;-56
2023/12/07 00:45:03;;;;;;;;;;;;;;;10.16;28.09;100405.34;104635;1254;147064;-57
2023/12/07 00:47:31;;;;;;;27.30;18.30;;;;;;;10.03;28.16;100405.36;104452;1254;59504;-57
2023/12/07 00:49:58;;;;;;;31.70;20.50;;;;;;;10.02;28.24;100406.48;104590;1256;71397;-56
2023/12/07 00:52:26;;;;;;;32.00;21.30;;;;;;;10.01;28.18;100408.76;104569;1255;69026;-57
2023/12/07 00:54:56;;;;;;;27.30;19.70;;;;;;;9.96;28.16;100406.27;104673;1263;72307;-57
2023/12/07 00:57:39;;;;;;;32.20;21.40;;;;;;;9.93;28.29;100400.92;104486;1254;60791;-56
2023/12/07 01:00:08;;;;;;;30.10;20.00;;;;;;;9.91;28.05;100406.76;104735;1255;60649;-57
2023/12/07 01:02:35;;;;;;;29.20;18.80;;;;;;;9.89;28.20;100403.48;104529;1257;72836;-56
2023/12/07 01:05:03;;;;;;;;;;;;;;;9.89;28.16;100404.90;104935;1254;69236;-58
2023/12/07 01:07:30;;;;;;;28.10;18.20;;;;;;;9.91;28.22;100400.10;104503;1257;73380;-57
2023/12/07 01:09:58;;;;;;;;;;;;;;;9.92;28.41;100399.04;104462;1254;59798;-57
2023/12/07 01:12:26;;;;;;;28.40;17.90;;;;;;;9.92;28.36;100401.48;104589;1254;60312;-56
2023/12/07 01:14:54;;;;;;;26.00;18.60;;;;;;;9.88;28.37;100390.90;104623;1264;72818;-56
2023/12/07 01:17:21;;;;;;;;;;;;;;;9.92;28.46;100394.84;104558;1264;68108;-56
2023/12/07 01:19:49;;;;;;;29.00;18.40;;;;;;;9.87;28.61;100393.02;104430;1254;73382;-56
2023/12/07 01:22:17;;;;;;;30.70;19.70;;;;;;;9.95;28.60;100395.79;104673;1252;59993;-56
2023/12/07 01:24:44;;;;;;;26.00;18.20;;;;;;;9.96;28.64;100399.11;104959;1254;60203;-58
2023/12/07 01:27:12;;;;;;;27.80;19.10;;;;;;;9.98;28.60;100397.98;104462;1256;72909;-56
2023/12/07 01:29:40;;;;;;;;;;;;;;;9.94;28.70;100398.64;104450;1258;68527;-57
2023/12/07 01:32:07;;;;;;;26.00;17.70;;;;;;;9.94;28.59;100392.15;104427;1254;74017;-56
2023/12/07 01:34:35;;;;;;;;;;;;;;;9.99;28.40;100392.02;104542;1252;60138;-57
2023/12/07 01:37:03;;;;;;;27.70;17.40;;;;;;;10.08;28.39;100385.45;104339;1258;59657;-57
2023/12/07 01:39:31;;;;;;;25.50;18.30;;;;;;;9.93;28.39;100385.54;104344;1254;72836;-56
2023/12/07 01:41:58;;;;;;;;;;;;;;;9.84;28.29;100385.25;104510;1274;69764;-55
2023/12/07 01:44:27;;;;;;;23.90;16.40;;;;;;;9.68;28.32;100390.24;104709;1254;72422;-57
2023/12/07 01:46:55;;;;;;;26.80;17.60;;;;;;;9.66;28.52;100391.89;104815;1259;61396;-56
2023/12/07 01:49:23;;;;;;;27.80;19.50;;;;;;;9.69;28.34;100386.36;104805;1256;59760;-56
2023/12/07 01:51:51;;;;;;;30.30;19.50;;;;;;;9.74;28.27;100383.25;104448;1267;73185;-56
2023/12/07 01:54:18;;;;;;;;;;;;;;;9.75;28.51;100384.61;104507;1257;70940;-56
2023/12/07 01:56:46;;;;;;;28.80;18.70;;;;;;;9.78;28.27;100389.62;104579;1253;72163;-55
2023/12/07 01:59:15;;;;;;;30.60;19.30;;;;;;;9.72;28.25;100390.29;104249;1260;59775;-55
2023/12/07 02:01:43;;;;;;;26.30;19.00;;;;;;;9.70;28.24;100386.34;104715;1254;60639;-57
2023/12/07 02:04:11;;;;;;;30.80;19.50;;;;;;;9.67;28.25;100382.55;104268;1263;73279;-56
2023/12/07 02:06:39;;;;;;;29.70;19.20;;;;;;;9.60;27.97;100382.23;105122;1254;70083;-56
2023/12/07 02:09:07;;;;;;;31.60;19.70;;;;;;;9.52;28.10;100380.67;104355;1257;72577;-56
2023/12/07 02:11:35;;;;;;;28.00;18.60;;;;;;;9.48;27.98;100379.21;104576;1251;59867;-56
2023/12/07 02:14:02;;;;;;;31.20;18.90;;;;;;;9.47;28.04;100382.91;104630;1257;59653;-56
2023/12/07 02:16:31;;;;;;;;;;;;;;;9.45;28.23;100382.64;104377;1258;73220;-55
2023/12/07 02:19:23;;;;;;;28.60;18.50;;;;;;;9.46;28.03;100377.52;104431;1257;68380;-57
2023/12/07 02:22:03;;;;;;;31.90;19.10;;;;;;;9.41;28.13;100375.02;104410;1261;72309;-56
2023/12/07 02:24:32;;;;;;;28.50;18.40;;;;;;;9.44;28.12;100374.60;104453;1253;60729;-56
2023/12/07 02:26:59;;;;;;;29.80;19.20;;;;;;;9.46;28.04;100379.45;104542;1254;61093;-56
2023/12/07 02:29:27;;;;;;;29.50;19.50;;;;;;;9.48;27.98;100375.73;104374;1275;72704;-56
2023/12/07 02:31:55;;;;;;;30.10;19.00;;;;;;;9.44;27.88;100379.52;104638;1256;69165;-56
2023/12/07 02:34:22;;;;;;;31.60;19.50;;;;;;;9.40;28.04;100375.05;104847;1251;72639;-56
2023/12/07 02:36:50;;;;;;;29.80;19.50;;;;;;;9.31;28.14;100371.61;104461;1254;59823;-56
2023/12/07 02:39:18;;;;;;;28.30;18.40;;;;;;;9.31;28.06;100373.88;104490;1261;60122;-56
2023/12/07 02:41:46;;;;;;;30.00;17.90;;;;;;;9.28;28.00;100369.59;104338;1261;72810;-56
2023/12/07 02:44:13;;;;;;;29.70;18.40;;;;;;;9.26;27.84;100370.88;104428;1258;69716;-56
2023/12/07 02:46:41;;;;;;;30.40;19.80;;;;;;;9.25;27.92;100370.55;104707;1257;72671;-56
2023/12/07 02:49:09;;;;;;;26.80;18.10;;;;;;;9.27;27.86;100373.98;104475;1255;61524;-56
2023/12/07 02:51:37;;;;;;;28.00;19.00;;;;;;;9.33;27.94;100373.48;104344;1254;59717;-56
2023/12/07 02:54:05;;;;;;;28.40;17.80;;;;;;;9.25;27.91;100373.33;104843;1257;73692;-56
2023/12/07 02:56:33;;;;;;;29.90;18.30;;;;;;;9.65;27.55;100377.86;105001;1255;69219;-57
2023/12/07 02:59:00;;;;;;;31.30;18.00;;;;;;;10.10;26.95;100381.16;104868;1262;72386;-58
2023/12/07 03:01:28;;;;;;;26.10;17.90;;;;;;;10.19;26.81;100384.76;104461;1257;60756;-56
2023/12/07 03:03:56;;;;;;;25.20;17.40;;;;;;;10.23;26.98;100385.54;104745;1254;59880;-55
2023/12/07 03:06:24;;;;;;;26.30;18.10;;;;;;;10.27;26.93;100386.27;104616;1251;72896;-56
2023/12/07 03:08:51;;;;;;;;;;;;;;;10.30;26.85;100389.54;104759;1256;69737;-55
2023/12/07 03:11:19;;;;;;;24.20;15.50;;;;;;;10.32;26.85;100386.86;104476;1262;71236;-56
2023/12/07 03:13:47;;;;;;;;;;;;;;;10.33;26.69;100386.48;104687;1255;60739;-56
2023/12/07 03:16:14;;;;;;;25.60;15.60;;;;;;;10.31;26.87;100388.29;104941;1256;59810;-56
2023/12/07 03:18:42;;;;;;;26.00;16.70;;;;;;;10.34;26.60;100385.93;104441;1254;73346;-56
2023/12/07 03:21:10;;;;;;;;;;;;;;;10.37;26.73;100385.86;104463;1251;69712;-57
2023/12/07 03:23:37;;;;;;;25.30;16.50;;;;;;;10.41;26.60;100386.43;104352;1270;73170;-57
2023/12/07 03:26:05;;;;;;;;;;;;;;;10.38;26.73;100393.70;104360;1268;60353;-58
2023/12/07 03:28:33;;;;;;;26.80;17.00;;;;;;;10.32;26.83;100391.05;104472;1257;59763;-57
2023/12/07 03:31:00;;;;;;;25.90;16.90;;;;;;;10.33;26.61;100390.17;104426;1254;71905;-57
2023/12/07 03:33:28;;;;;;;26.40;16.90;;;;;;;9.87;26.95;100394.42;104553;1262;69488;-57
2023/12/07 03:35:56;;;;;;;26.10;17.70;;;;;;;9.61;27.20;100401.63;104568;1252;72541;-57
2023/12/07 03:38:25;;;;;;;27.90;17.40;;;;;;;9.28;27.66;100394.43;104651;1256;60778;-57
2023/12/07 03:40:53;;;;;;;25.90;17.90;;;;;;;9.12;27.80;100397.80;108335;1253;60057;-57
2023/12/07 03:43:20;;;;;;;24.30;15.50;;;;;;;9.38;27.72;100403.27;108264;1253;72761;-58
2023/12/07 03:45:48;;;;;;;24.60;16.30;;;;;;;9.71;27.41;100405.88;108370;1251;69945;-57
2023/12/07 03:48:16;;;;;;;24.50;16.30;;;;;;;10.00;27.12;100404.41;108279;1253;72320;-57
2023/12/07 03:50:44;;;;;;;24.10;16.20;;;;;;;10.21;26.98;100402.42;108446;1252;60610;-58
2023/12/07 03:53:12;;;;;;;23.50;16.00;;;;;;;10.28;26.84;100403.08;108489;1252;60063;-57
2023/12/07 03:55:41;;;;;;;21.80;16.10;;;;;;;10.36;26.85;100400.77;108261;1252;72981;-57
2023/12/07 03:58:08;;;;;;;23.20;15.60;;;;;;;10.38;26.95;100399.84;108228;1253;69295;-56
2023/12/07 04:00:36;;;;;;;22.70;15.20;;;;;;;10.18;27.23;100400.20;108255;1252;71307;-56
2023/12/07 04:03:04;;;;;;;23.40;17.00;;;;;;;9.61;27.68;100400.92;108379;1252;60017;-57
2023/12/07 04:05:31;;;;;;;25.70;16.90;;;;;;;10.11;27.41;100393.04;108397;1252;60114;-56
2023/12/07 04:07:59;;;;;;;23.80;16.20;;;;;;;10.54;27.00;100385.68;108401;1253;73680;-56
2023/12/07 04:10:27;;;;;;;22.50;15.50;;;;;;;10.56;26.96;100385.45;108240;1253;69355;-56
2023/12/07 04:12:55;;;;;;;25.30;16.50;;;;;;;10.60;26.87;100384.63;108427;1252;73301;-56
2023/12/07 04:15:22;;;;;;;24.90;18.00;;;;;;;10.69;26.88;100381.72;108416;1253;60172;-56
2023/12/07 04:17:50;;;;;;;26.20;17.10;;;;;;;10.73;26.81;100375.44;108304;1253;59881;-56
2023/12/07 04:20:19;;;;;;;;;;;;;;;10.74;26.83;100375.23;108454;1252;73745;-56
2023/12/07 04:22:46;;;;;;;23.20;15.80;;;;;;;10.72;26.77;100376.89;108271;1253;69325;-56
2023/12/07 04:25:14;;;;;;;23.20;16.90;;;;;;;10.68;26.77;100378.06;108280;1252;72594;-57
2023/12/07 04:27:42;;;;;;;24.90;16.30;;;;;;;10.60;26.84;100372.17;108189;1253;59212;-57
2023/12/07 04:30:10;;;;;;;22.30;15.10;;;;;;;10.60;26.99;100373.58;108256;1251;60250;-56
2023/12/07 04:32:39;;;;;;;25.40;17.20;;;;;;;10.65;26.91;100369.23;108279;1252;72824;-55
2023/12/07 04:35:08;;;;;;;26.00;16.50;;;;;;;10.72;26.82;100366.52;108425;1252;69011;-55
2023/12/07 04:37:36;;;;;;;22.30;15.20;;;;;;;10.79;26.80;100372.11;108274;1253;72547;-57
2023/12/07 04:40:04;;;;;;;22.90;16.50;;;;;;;10.75;26.82;100373.09;108404;1252;60000;-57
2023/12/07 04:42:32;;;;;;;24.80;16.30;;;;;;;10.14;27.50;100374.05;108323;1252;59802;-56
2023/12/07 04:44:59;;;;;;;;;;;;;;;9.94;27.83;100373.92;108486;1252;74135;-57
2023/12/07 04:47:28;;;;;;;22.70;15.20;;;;;;;9.87;27.98;100371.52;108397;1252;68386;-56
2023/12/07 04:49:56;;;;;;;21.00;15.40;;;;;;;9.78;28.02;100374.04;108237;1252;72291;-57
2023/12/07 04:52:24;;;;;;;21.20;15.80;;;;;;;9.74;28.14;100375.20;108327;1252;59817;-59
2023/12/07 04:54:52;;;;;;;24.10;17.20;;;;;;;9.98;27.71;100377.15;108253;1251;60098;-56
2023/12/07 04:57:19;;;;;;;23.60;16.80;;;;;;;10.02;27.92;100386.32;108366;1252;72126;-56
2023/12/07 04:59:47;;;;;;;;;;;;;;;10.04;28.01;100388.19;108263;1251;69247;-56
2023/12/07 05:02:16;;;;;;;23.20;15.80;;;;;;;10.07;27.90;100385.81;108331;1252;72682;-56
2023/12/07 05:04:45;;;;;;;22.30;16.10;;;;;;;9.99;27.96;100384.65;108464;1252;60118;-57
2023/12/07 05:07:13;;;;;;;24.50;15.30;;;;;;;10.10;28.02;100380.81;108281;1252;60645;-56
2023/12/07 05:09:40;;;;;;;24.20;16.40;;;;;;;10.07;27.95;100383.71;108226;1253;73624;-57
2023/12/07 05:12:08;;;;;;;22.30;15.70;;;;;;;10.02;28.14;100381.42;108436;1252;69569;-56
2023/12/07 05:14:36;;;;;;;24.70;15.90;;;;;;;9.98;27.93;100376.63;108237;1253;72040;-57
2023/12/07 05:17:05;;;;;;;22.30;15.90;;;;;;;9.91;28.08;100374.38;108380;1252;60167;-58
2023/12/07 05:19:32;;;;;;;20.80;14.80;;;;;;;9.89;28.18;100380.73;108266;1253;59617;-56
2023/12/07 05:22:01;;;;;;;20.30;15.00;;;;;;;10.31;27.81;100379.69;108270;1253;74115;-57
2023/12/07 05:24:30;;;;;;;21.10;15.10;;;;;;;10.84;27.13;100379.33;108486;1251;69716;-58
2023/12/07 05:26:58;;;;;;;22.80;16.10;;;;;;;10.47;27.56;100383.05;108445;1251;72352;-58
2023/12/07 05:29:25;;;;;;;;;;;;;;;10.95;27.01;100386.69;108413;1252;59146;-58
2023/12/07 05:31:52;;;;;;;21.70;14.90;;;;;;;10.44;27.46;100386.46;108281;1253;59543;-58
2023/12/07 05:34:20;;;;;;;;;;;;;;;10.09;27.88;100392.23;108382;1252;73689;-60
2023/12/07 05:36:48;;;;;;;26.50;14.50;;;;;;;10.06;27.86;100393.89;108161;1252;69662;-60
2023/12/07 05:39:17;;;;;;;19.90;14.40;;;;;;;10.34;27.53;100389.94;108359;1252;72850;-59
2023/12/07 05:41:46;;;;;;;21.30;14.30;;;;;;;9.97;27.93;100397.33;108285;1252;59058;-60
2023/12/07 05:44:14;;;;;;;23.10;15.80;;;;;;;9.95;27.90;100396.48;108469;1251;58736;-59
2023/12/07 05:49:45;;;;;;;23.50;16.30;;;;;;;9.89;28.04;100401.40;101845;1302;601725;-59
2023/12/07 05:52:13;;;;;;;25.50;16.50;;;;;;;9.81;27.85;100405.98;104258;1264;59766;-59
2023/12/07 05:54:46;;;;;;;;;;;;;;;9.71;28.03;100399.43;103961;1266;60132;-58
2023/12/07 05:57:14;;;;;;;22.50;15.30;;;;;;;9.65;28.22;100387.86;104389;1261;71913;-58
2023/12/07 05:59:43;;;;;;;23.40;16.40;;;;;;;9.67;28.03;100393.95;104312;1261;69374;-61
2023/12/07 06:02:10;;;;;;;23.50;15.50;;;;;;;9.68;27.87;100395.48;104167;1260;72849;-59
2023/12/07 06:04:38;;;;;;;22.20;15.70;;;;;;;9.65;28.17;100393.45;104291;1264;60860;-58
2023/12/07 06:07:06;;;;;;;21.40;15.60;;;;;;;9.53;28.11;100394.32;104716;1254;60408;-61
2023/12/07 06:09:34;;;;;;;;;;;;;;;9.43;28.10;100391.08;104449;1260;72227;-61
2023/12/07 06:12:02;;;;;;;21.00;14.50;;;;;;;9.44;28.13;100393.48;105549;1257;69339;-59
2023/12/07 06:14:29;;;;;;;22.20;15.30;;;;;;;9.43;28.13;100388.61;105922;1254;72957;-64
2023/12/07 06:16:59;;;;;;;24.20;16.00;;;;;;;9.46;28.13;100388.38;105809;1253;59651;-61
2023/12/07 06:19:26;;;;;;;20.20;14.60;;;;;;;9.47;28.05;100383.61;105895;1254;59688;-60
2023/12/07 06:21:55;;;;;;;21.90;14.90;;;;;;;9.57;27.89;100384.91;105546;1254;72752;-62
2023/12/07 06:24:24;;;;;;;20.40;15.60;;;;;;;9.28;28.33;100388.48;106071;1254;68784;-62
2023/12/07 06:26:52;;;;;;;23.30;14.70;;;;;;;9.35;28.42;100394.09;105281;1260;73008;-62
2023/12/07 06:29:20;;;;;;;20.90;15.20;;;;;;;9.36;28.31;100388.13;105668;1254;59866;-61
2023/12/07 06:31:47;;;;;;;20.70;15.20;;;;;;;9.25;28.31;100388.02;105471;1252;59739;-61
2023/12/07 06:34:15;;;;;;;;;;;;;;;9.19;28.28;100390.65;105961;1254;71983;-62
2023/12/07 06:36:43;;;;;;;24.40;14.40;;;;;;;9.20;28.51;100389.40;105666;1253;70376;-61
2023/12/07 06:39:11;;;;;;;22.10;15.00;;;;;;;9.18;28.65;100388.39;106168;1257;71393;-60
2023/12/07 06:41:39;;;;;;;20.10;14.80;;;;;;;9.26;28.62;100390.98;105390;1258;59929;-58
2023/12/07 06:44:08;;;;;;;;;;;;;;;9.22;28.43;100391.09;105648;1255;59708;-59
2023/12/07 06:46:35;;;;;;;21.20;14.70;;;;;;;9.30;28.77;100387.04;105729;1253;73276;-60
2023/12/07 06:49:03;;;;;;;21.90;14.30;;;;;;;9.44;28.42;100389.98;105765;1253;69123;-61
2023/12/07 06:51:31;;;;;;;22.40;15.20;;;;;;;9.53;28.27;100393.27;105815;1254;73396;-60
2023/12/07 06:54:00;;;;;;;21.20;15.50;;;;;;;9.72;28.02;100393.45;105929;1254;59950;-61
2023/12/07 06:56:28;;;;;;;20.00;14.50;;;;;;;9.50;28.39;100388.43;105898;1254;59804;-60
2023/12/07 06:58:56;;;;;;;;;;;;;;;9.53;28.46;100397.46;105859;1254;72763;-60
2023/12/07 07:01:24;;;;;;;22.00;14.80;;;;;;;9.46;28.70;100391.35;106138;1254;69709;-60
2023/12/07 07:03:52;;;;;;;21.70;15.10;;;;;;;9.40;28.78;100389.23;105860;1258;71359;-60
2023/12/07 07:06:20;;;;;;;21.50;14.90;;;;;;;9.46;29.02;100386.45;105796;1257;62906;-60
2023/12/07 07:08:49;;;;;;;19.90;15.30;;;;;;;9.46;28.91;100384.52;105204;1256;59959;-63
2023/12/07 07:11:16;;;;;;;19.70;15.20;;;;;;;9.48;28.79;100384.64;105437;1257;75210;-60
2023/12/07 07:13:44;;;;;;;22.80;15.40;;;;;;;9.50;28.82;100381.79;105734;1256;69005;-61
2023/12/07 07:16:12;;;;;;;19.80;14.50;;;;;;;9.52;28.91;100378.06;105681;1254;72370;-60
2023/12/07 07:18:40;;;;;;;23.40;15.90;;;;;;;9.43;29.03;100375.66;105769;1256;59801;-60
2023/12/07 07:21:08;;;;;;;21.00;14.80;;;;;;;9.45;29.02;100382.44;105943;1254;61190;-61
2023/12/07 07:23:35;;;;;;;17.10;13.20;;;;;;;9.51;28.89;100387.89;106425;1253;73726;-60
2023/12/07 07:26:03;;;;;;;22.30;15.90;;;;;;;9.52;28.76;100391.01;105588;1254;69633;-61
2023/12/07 07:28:31;;;;;;;21.00;15.10;;;;;;;9.53;29.10;100390.83;105838;1254;71680;-60
2023/12/07 07:30:59;;;;;;;21.50;15.20;;;;;;;9.52;29.25;100386.45;106139;1254;60535;-61
2023/12/07 07:33:27;;;;;;;;;;;;;;;9.53;29.23;100386.78;105715;1257;60734;-60
2023/12/07 07:35:55;;;;;;;20.70;14.60;;;;;;;9.60;29.08;100390.63;105644;1254;72778;-60
2023/12/07 07:38:25;;;;;;;20.70;15.10;;;;;;;9.61;29.09;100393.93;106107;1252;69766;-60
2023/12/07 07:40:53;;;;;;;;;;;;;;;9.66;29.08;100400.25;106040;1254;73003;-60
2023/12/07 07:43:21;;;;;;;20.30;13.90;;;;;;;9.68;29.14;100408.96;105858;1257;60098;-60
2023/12/07 07:45:49;;;;;;;20.10;15.20;;;;;;;10.34;28.38;100410.95;105800;1254;59810;-60
2023/12/07 07:48:17;;;;;;;18.50;14.10;;;;;;;10.68;27.90;100413.83;105650;1253;71591;-61
2023/12/07 07:50:45;;;;;;;20.90;14.70;;;;;;;10.67;27.60;100415.61;105778;1253;69137;-60
2023/12/07 07:53:12;;;;;;;;;;;;;;;10.99;27.58;100410.92;105807;1255;73201;-60
2023/12/07 07:55:40;;;;;;;18.70;14.20;;;;;;;11.35;27.29;100413.08;106001;1253;59791;-60
2023/12/07 07:58:08;;;;;;;22.30;15.50;;;;;;;11.53;26.99;100415.23;106131;1254;59825;-60
2023/12/07 08:00:36;;;;;;;20.80;15.10;;;;;;;11.20;27.43;100423.92;106462;1252;72930;-61
2023/12/07 08:03:04;;;;;;;20.50;15.10;;;;;;;10.96;27.60;100429.58;105678;1253;69454;-61
2023/12/07 08:05:33;;;;;;;20.30;14.50;;;;;;;10.28;28.35;100432.91;106436;1254;72469;-61
2023/12/07 08:08:01;;;;;;;21.40;15.30;;;;;;;10.25;28.52;100432.60;106266;1254;59829;-61
2023/12/07 08:10:29;;;;;;;21.90;14.90;;;;;;;10.15;28.56;100436.56;105767;1253;59723;-61
2023/12/07 08:12:57;;;;;;;23.20;15.80;;;;;;;10.12;28.72;100446.83;106109;1256;73642;-60
2023/12/07 08:15:24;;;;;;;23.90;15.20;;;;;;;10.13;28.82;100443.83;106510;1254;70345;-60
2023/12/07 08:17:52;;;;;;;20.80;14.80;;;;;;;10.10;28.73;100447.55;105544;1256;72142;-61
2023/12/07 08:20:21;;;;;;;21.60;15.70;;;;;;;10.10;28.92;100448.11;105765;1254;62005;-60
2023/12/07 08:22:48;;;;;;;23.40;16.50;;;;;;;10.15;28.99;100455.49;106206;1253;59863;-60
2023/12/07 08:25:17;;;;;;;21.40;15.00;;;;;;;10.26;28.91;100457.10;106097;1254;71939;-61
2023/12/07 08:44:01;;;;;;;23.20;15.90;;;;;;;10.19;28.94;100458.71;104519;1261;60691;-60
2023/12/07 08:46:33;;;;;;;23.50;16.30;;;;;;;10.23;28.85;100460.70;104315;1260;72830;-61
2023/12/07 08:49:01;;;;;;;23.80;16.00;;;;;;;10.24;28.98;100450.88;105202;1254;69348;-60
2023/12/07 08:51:29;;;;;;;24.10;17.60;;;;;;;10.32;28.84;100444.34;104701;1263;72393;-61
2023/12/07 08:53:57;;;;;;;25.40;18.10;;;;;;;10.52;28.74;100447.80;105138;1257;59957;-60
2023/12/07 12:46:32;;;;;;;30.40;21.90;;;;;;;11.09;32.28;100340.19;100929;1291;616131;-60
2023/12/07 12:49:00;;;;;;;32.00;22.00;;;;;;;12.66;29.60;100332.21;103892;1266;59399;-60
2023/12/07 12:51:29;;;;;;;33.40;22.00;;;;;;;12.62;29.52;100337.44;103978;1266;59975;-60
2023/12/07 12:53:56;;;;;;;34.00;22.50;;;;;;;12.53;29.55;100336.95;103844;1267;71981;-60
2023/12/07 12:56:23;;;;;;;34.90;23.90;;;;;;;12.54;29.70;100339.35;103861;1269;70297;-59
2023/12/07 12:58:50;;;;;;;30.30;21.30;;;;;;;12.50;29.71;100339.89;103258;1269;1019248;-60
2023/12/07 13:01:17;;;;;;;32.90;21.80;;;;;;;12.43;29.89;100335.72;104211;1264;59358;-60
2023/12/07 13:03:48;;;;;;;31.10;21.00;;;;;;;12.41;29.76;100329.67;104102;1267;59250;-61
2023/12/07 13:06:16;;;;;;;31.40;21.20;;;;;;;12.42;29.77;100329.79;104409;1266;72587;-61
2023/12/07 13:08:43;;;;;;;33.00;21.00;;;;;;;12.45;29.75;100327.02;104175;1268;69434;-61
2023/12/07 13:11:17;;;;;;;27.70;19.90;;;;;;;12.47;29.73;100328.02;104264;1266;71321;-61
2023/12/07 13:13:47;;;;;;;28.50;20.60;;;;;;;12.53;29.84;100326.57;104203;1264;59657;-61
2023/12/07 13:16:14;;;;;;;29.60;21.80;;;;;;;12.61;29.71;100329.91;103974;1268;59727;-61
2023/12/07 13:18:41;;;;;;;29.50;21.40;;;;;;;12.52;29.94;100325.58;104938;1256;73358;-61
2023/12/07 13:21:11;;;;;;;29.80;21.30;;;;;;;12.47;29.86;100328.36;104542;1254;70335;-61
2023/12/07 13:23:39;;;;;;;31.50;19.90;;;;;;;12.33;29.88;100323.45;104294;1261;72482;-61
2023/12/07 13:26:06;;;;;;;29.00;19.90;;;;;;;12.32;30.12;100322.11;104723;1262;60804;-61
2023/12/07 13:28:33;;;;;;;30.10;21.10;;;;;;;12.52;29.94;100323.61;104471;1256;60579;-61
2023/12/07 13:31:00;;;;;;;29.50;20.00;;;;;;;12.44;30.15;100320.59;104773;1258;72991;-60
2023/12/07 13:33:27;;;;;;;29.80;20.40;;;;;;;12.42;30.11;100320.85;104590;1260;70087;-59
2023/12/07 13:36:00;;;;;;;29.70;20.20;;;;;;;12.37;30.10;100319.45;104650;1260;71512;-59
2023/12/07 13:38:31;;;;;;;28.50;21.20;;;;;;;12.34;30.15;100317.83;104342;1261;59770;-60
2023/12/07 13:40:57;;;;;;;30.30;20.60;;;;;;;12.38;30.28;100317.14;104340;1256;60471;-59
2023/12/07 13:43:24;;;;;;;30.00;20.70;;;;;;;12.40;30.13;100316.49;104169;1259;72780;-59
2023/12/07 13:45:51;;;;;;;35.50;21.20;;;;;;;12.46;30.12;100315.92;104814;1260;69293;-60
2023/12/07 13:48:19;;;;;;;27.40;19.70;;;;;;;12.51;30.03;100320.14;104538;1260;72600;-61
2023/12/07 13:50:45;;;;;;;27.90;20.00;;;;;;;12.49;30.22;100323.89;104631;1260;59785;-59
2023/12/07 13:53:13;;;;;;;28.90;20.00;;;;;;;12.45;30.02;100323.71;104432;1270;60249;-59
2023/12/07 13:55:40;;;;;;;26.70;19.50;;;;;;;12.46;30.14;100329.45;104655;1260;73209;-60
2023/12/07 13:58:07;;;;;;;28.90;19.90;;;;;;;12.52;30.07;100327.86;104441;1261;70834;-61
2023/12/07 14:00:34;;;;;;;27.20;19.90;;;;;;;12.58;30.14;100326.52;104677;1260;72662;-60
2023/12/07 14:03:01;;;;;;;31.60;19.20;;;;;;;12.64;30.10;100321.52;104367;1271;60942;-61
2023/12/07 14:05:28;;;;;;;26.50;19.50;;;;;;;12.71;30.01;100317.20;104658;1256;59642;-60
2023/12/07 14:07:56;;;;;;;27.40;19.60;;;;;;;12.71;30.09;100312.64;104139;1262;72831;-61
2023/12/07 14:10:23;;;;;;;30.40;20.70;;;;;;;12.64;30.10;100318.38;104258;1264;69791;-60
2023/12/07 14:12:50;;;;;;;28.90;20.60;;;;;;;12.66;30.13;100318.30;105151;1260;72656;-60
2023/12/07 14:15:18;;;;;;;27.30;19.80;;;;;;;12.68;30.28;100318.05;105194;1256;60268;-60
2023/12/07 14:17:56;;;;;;;27.30;20.00;;;;;;;12.60;30.28;100318.90;104403;1257;60608;-59
2023/12/07 14:20:27;;;;;;;27.00;18.80;;;;;;;12.51;30.48;100322.77;104891;1256;73144;-58
2023/12/07 14:23:15;;;;;;;28.30;19.80;;;;;;;12.45;30.62;100324.23;104416;1257;69581;-58
2023/12/07 14:25:46;;;;;;;31.40;20.20;;;;;;;12.35;30.65;100324.27;104470;1256;73175;-58
2023/12/07 14:28:13;;;;;;;29.90;20.50;;;;;;;12.31;30.82;100319.67;104674;1264;61213;-61
2023/12/07 14:30:40;;;;;;;31.40;20.50;;;;;;;12.28;31.09;100319.45;104736;1265;60276;-61
2023/12/07 14:33:07;;;;;;;27.10;19.10;;;;;;;12.21;31.03;100314.11;104906;1260;73161;-60
2023/12/07 14:35:34;;;;;;;28.90;19.60;;;;;;;12.28;31.06;100317.52;104587;1260;69477;-60
2023/12/07 14:38:02;;;;;;;26.60;17.40;;;;;;;12.33;30.83;100316.43;105408;1256;74086;-60
2023/12/07 14:40:29;;;;;;;23.50;17.90;;;;;;;12.30;31.02;100321.33;105018;1257;61105;-59
2023/12/07 14:42:57;;;;;;;28.10;18.80;;;;;;;12.32;31.09;100319.48;105513;1256;59643;-60
2023/12/07 14:45:24;;;;;;;27.30;18.10;;;;;;;12.35;30.97;100321.99;104951;1256;71837;-61
2023/12/07 14:47:51;;;;;;;24.60;18.40;;;;;;;12.41;30.95;100327.36;104882;1256;70615;-59
2023/12/07 14:50:18;;;;;;;23.70;17.90;;;;;;;12.37;30.81;100326.11;104751;1256;73605;-59
2023/12/07 14:52:45;;;;;;;23.50;17.40;;;;;;;12.34;30.88;100324.67;104369;1271;60370;-61
2023/12/07 14:55:13;;;;;;;25.10;16.30;;;;;;;12.29;30.93;100316.77;104848;1259;60712;-57
2023/12/07 14:57:39;;;;;;;24.00;16.40;;;;;;;12.31;30.91;100316.17;104325;1262;73136;-58
2023/12/07 15:00:07;;;;;;;26.00;17.60;;;;;;;12.32;31.21;100314.22;104769;1256;69547;-60
2023/12/07 15:02:35;;;;;;;23.80;17.70;;;;;;;12.37;31.06;100317.67;104665;1253;72813;-60
2023/12/07 15:05:01;;;;;;;24.90;18.30;;;;;;;12.47;31.37;100313.41;104964;1259;61490;-59
2023/12/07 15:07:28;;;;;;;25.70;17.00;;;;;;;12.50;31.20;100315.95;104806;1257;60491;-60
2023/12/07 15:09:57;;;;;;;26.60;17.00;;;;;;;12.54;31.01;100317.90;105160;1253;72648;-60
2023/12/07 15:12:27;;;;;;;24.50;16.90;;;;;;;12.58;31.31;100320.04;104370;1253;69786;-60
2023/12/07 15:14:56;;;;;;;22.80;15.60;;;;;;;12.56;31.30;100319.41;104947;1256;72518;-60
2023/12/07 15:17:23;;;;;;;;;;;;;;;12.56;31.27;100320.10;104533;1265;61087;-60
2023/12/07 15:19:50;;;;;;;22.30;16.00;;;;;;;12.57;31.22;100314.06;104742;1258;59834;-61
2023/12/07 15:22:17;;;;;;;22.30;16.60;;;;;;;12.62;31.63;100310.70;104435;1275;73446;-60
2023/12/07 15:24:44;;;;;;;23.40;16.40;;;;;;;12.74;31.42;100308.29;104376;1257;70039;-61
2023/12/07 15:27:11;;;;;;;28.60;17.40;;;;;;;12.81;31.18;100311.34;104868;1253;72505;-59
2023/12/07 15:29:39;;;;;;;24.60;16.90;;;;;;;12.84;30.97;100309.98;105119;1254;59870;-60